CheckWX is a tool to help pilots better visualize weather data.  It is not intended as a substitute for an official pre-flight weather briefing.

05:45:49 UTC

1P1 METAR
Plymouth Municipal Airport
Plymouth, New Hampshire, USA
Current

11 mins ago

K1P1 200535Z AUTO 00000KT 7SM CLR 17/16 A2999 RMK AO2 T01690163
Observed
Aug-20 @ 05:35 UTC
Visibility
7 SM
Flight Rules
VFR
Cloud Levels
  • Clear skies
Temperature
17°C / 63°F
Dewpoint
16°C / 61°F
Humidity
94%
Altimeter
29.99" Hg
Pressure
1015.62 hPa
Previous

31 mins ago

K1P1 200515Z AUTO 00000KT 4SM BR CLR 17/16 A2999 RMK AO2 T01720164
Observed
Aug-20 @ 05:15 UTC
Visibility
4 SM
Flight Rules
MVFR
Conditions
Mist
Cloud Levels
  • Clear skies
Temperature
17°C / 63°F
Dewpoint
16°C / 61°F
Humidity
94%
Altimeter
29.99" Hg
Pressure
1015.62 hPa
Previous

51 mins ago

K1P1 200455Z AUTO 00000KT 1SM BR VV007 17/16 A2999 RMK AO2 T01730163
Observed
Aug-20 @ 04:55 UTC
Visibility
1 SM
Flight Rules
LIFR
Conditions
Mist
Cloud Levels
  • Vertical visibility at 700' AGL
Temperature
17°C / 63°F
Dewpoint
16°C / 61°F
Humidity
94%
Altimeter
29.99" Hg
Pressure
1015.62 hPa